createdAt,value
2022-12-19T00:03:25.634Z,-7.03
2022-12-19T00:08:36.630Z,-6.95
2022-12-19T00:13:42.214Z,-6.81
2022-12-19T00:18:47.687Z,-6.76
2022-12-19T00:23:51.984Z,-6.64
2022-12-19T00:28:58.631Z,-6.54
2022-12-19T00:34:02.710Z,-6.52
2022-12-19T00:39:07.888Z,-6.49
2022-12-19T00:44:15.533Z,-6.56
2022-12-19T00:49:19.394Z,-6.94
2022-12-19T00:54:23.010Z,-6.88
2022-12-19T00:59:28.494Z,-6.76
2022-12-19T01:04:35.660Z,-6.70
2022-12-19T01:09:43.507Z,-6.62
2022-12-19T01:14:50.214Z,-6.46
2022-12-19T01:19:53.846Z,-6.56
2022-12-19T01:24:57.281Z,-6.44
2022-12-19T01:30:03.122Z,-6.38
2022-12-19T01:35:09.931Z,-6.29
2022-12-19T01:40:25.525Z,-6.28
2022-12-19T01:45:34.670Z,-6.15
2022-12-19T01:50:56.217Z,-6.02
2022-12-19T01:56:11.225Z,-6.28
2022-12-19T02:01:17.874Z,-6.28
2022-12-19T02:06:21.646Z,-6.43
2022-12-19T02:11:25.328Z,-6.42
2022-12-19T02:16:42.581Z,-6.19
2022-12-19T02:21:54.829Z,-6.22
2022-12-19T02:27:35.925Z,-6.21
2022-12-19T02:32:51.994Z,-6.32
2022-12-19T02:38:05.704Z,-6.37
2022-12-19T02:43:13.295Z,-6.31
2022-12-19T02:48:20.089Z,-6.19
2022-12-19T02:53:24.208Z,-6.37
2022-12-19T02:58:49.804Z,-6.19
2022-12-19T03:04:05.716Z,-6.11
2022-12-19T03:09:17.957Z,-6.06
2022-12-19T03:14:22.591Z,-6.21
2022-12-19T03:19:27.688Z,-6.14
2022-12-19T03:24:31.528Z,-6.43
2022-12-19T03:29:38.977Z,-6.48
2022-12-19T03:34:48.795Z,-6.22
2022-12-19T03:40:00.557Z,-6.41
2022-12-19T03:45:06.924Z,-6.36
2022-12-19T03:50:12.675Z,-6.60
2022-12-19T03:55:21.188Z,-6.56
2022-12-19T04:00:26.090Z,-7.00
2022-12-19T04:05:31.457Z,-6.94
2022-12-19T04:10:40.007Z,-7.09
2022-12-19T04:15:52.011Z,-6.87
2022-12-19T04:21:03.719Z,-6.73
2022-12-19T04:26:10.367Z,-6.46
2022-12-19T04:31:16.511Z,-6.30
2022-12-19T04:36:21.459Z,-6.08
2022-12-19T04:41:25.175Z,-6.28
2022-12-19T04:46:28.810Z,-6.06
2022-12-19T04:51:33.878Z,-5.93
2022-12-19T04:56:37.599Z,-5.81
2022-12-19T05:01:41.114Z,-5.92
2022-12-19T05:06:46.263Z,-5.82
2022-12-19T05:11:49.952Z,-5.74
2022-12-19T05:16:57.333Z,-6.02
2022-12-19T05:22:05.745Z,-5.56
2022-12-19T05:27:09.651Z,-5.47
2022-12-19T05:32:13.430Z,-5.65
2022-12-19T05:37:18.613Z,-5.57
2022-12-19T05:42:22.279Z,-5.45
2022-12-19T05:47:25.913Z,-5.28
2022-12-19T05:52:30.812Z,-5.15
2022-12-19T05:57:34.527Z,-4.95
2022-12-19T06:02:38.287Z,-4.89
2022-12-19T06:07:43.499Z,-4.70
2022-12-19T06:12:46.840Z,-4.77
2022-12-19T06:17:54.281Z,-4.62
2022-12-19T06:22:59.153Z,-4.54
2022-12-19T06:28:03.630Z,-4.45
2022-12-19T06:33:07.000Z,-4.32
2022-12-19T06:38:13.101Z,-4.16
2022-12-19T06:43:16.507Z,-4.17
2022-12-19T06:48:20.156Z,-4.14
2022-12-19T06:53:25.205Z,-4.31
2022-12-19T06:58:29.357Z,-4.26
2022-12-19T07:03:37.605Z,-4.19
2022-12-19T07:08:42.921Z,-3.81
2022-12-19T07:13:46.374Z,-3.79
2022-12-19T07:18:50.346Z,-3.62
2022-12-19T07:23:55.638Z,-3.41
2022-12-19T07:29:00.023Z,-3.47
2022-12-19T07:34:03.509Z,-3.14
2022-12-19T07:39:08.625Z,-2.85
2022-12-19T07:44:13.897Z,-2.82
2022-12-19T07:49:22.453Z,-2.78
2022-12-19T07:54:27.836Z,-2.78
2022-12-19T07:59:38.690Z,-2.77
2022-12-19T08:04:42.798Z,-2.75
2022-12-19T08:09:48.097Z,-2.75
2022-12-19T08:14:56.864Z,-2.50
2022-12-19T08:20:00.863Z,-2.41
2022-12-19T08:25:07.551Z,-2.20
2022-12-19T08:30:13.752Z,-2.13
2022-12-19T08:35:17.367Z,-2.18
2022-12-19T08:40:23.690Z,-1.88
2022-12-19T08:45:27.164Z,-2.07
2022-12-19T08:50:30.829Z,-2.06
2022-12-19T08:55:37.294Z,-2.01
2022-12-19T09:00:41.343Z,-2.02
2022-12-19T09:05:59.416Z,-1.92
2022-12-19T09:11:09.887Z,-1.77
2022-12-19T09:16:16.318Z,-1.64
2022-12-19T09:21:21.452Z,-1.66
2022-12-19T09:26:28.610Z,-1.67
2022-12-19T09:31:37.596Z,-1.75
2022-12-19T09:36:41.416Z,-1.93
2022-12-19T09:42:13.639Z,-1.66
2022-12-19T09:47:21.153Z,-1.77
2022-12-19T09:52:33.107Z,-1.69
2022-12-19T09:57:43.257Z,-1.70
2022-12-19T10:02:51.421Z,-1.75
2022-12-19T10:08:08.464Z,-1.55
2022-12-19T10:13:25.519Z,-1.37
2022-12-19T10:18:44.149Z,-1.58
2022-12-19T10:24:20.316Z,-1.63
2022-12-19T10:30:02.876Z,-1.42
2022-12-19T10:35:14.897Z,-1.35
2022-12-19T10:40:28.059Z,-1.26
2022-12-19T10:45:40.706Z,-1.13
2022-12-19T10:50:45.469Z,-1.21
2022-12-19T10:55:51.034Z,-1.15
2022-12-19T11:01:05.383Z,-1.12
2022-12-19T11:06:41.670Z,-1.01
2022-12-19T11:13:27.303Z,-0.99
2022-12-19T11:23:50.293Z,-0.94
2022-12-19T11:30:05.417Z,-0.88
2022-12-19T11:30:47.109Z,-0.93
2022-12-19T11:33:48.644Z,-0.71
2022-12-19T11:38:55.248Z,-0.69
2022-12-19T11:44:03.634Z,-0.92
2022-12-19T11:49:19.010Z,-0.83
2022-12-19T11:54:28.727Z,-0.95
2022-12-19T11:59:34.429Z,-0.88
2022-12-19T12:04:56.270Z,-0.68
2022-12-19T12:14:42.292Z,-0.56
2022-12-19T12:27:22.484Z,-0.57
2022-12-19T12:31:12.648Z,-0.49
2022-12-19T12:31:43.770Z,-0.36
2022-12-19T12:35:56.480Z,-0.37
2022-12-19T12:38:18.861Z,-0.30
2022-12-19T12:43:32.967Z,-0.43
2022-12-19T12:48:44.158Z,-0.31
2022-12-19T12:53:50.829Z,-0.36
2022-12-19T12:59:20.602Z,-0.35
2022-12-19T13:04:31.735Z,-0.29
2022-12-19T13:09:38.260Z,-0.28
2022-12-19T13:14:47.736Z,-0.36
2022-12-19T13:19:57.676Z,-0.38
2022-12-19T13:25:02.818Z,-0.37
2022-12-19T13:30:18.001Z,-0.16
2022-12-19T13:37:05.666Z,-0.20
2022-12-19T13:41:25.197Z,-0.06
2022-12-19T13:46:41.875Z,0.02
2022-12-19T13:51:51.192Z,0.03
2022-12-19T13:56:57.011Z,0.09
2022-12-19T14:02:09.836Z,-0.05
2022-12-19T14:07:36.687Z,-0.11
2022-12-19T14:13:56.803Z,-0.17
2022-12-19T14:18:43.398Z,-0.23
2022-12-19T14:23:49.490Z,-0.34
2022-12-19T14:29:00.034Z,-0.25
2022-12-19T14:34:35.719Z,-0.19
2022-12-19T14:39:32.773Z,-0.01
2022-12-19T14:52:25.461Z,0.07
2022-12-19T14:54:34.887Z,-0.01
2022-12-19T14:56:28.132Z,0.18
2022-12-19T15:01:33.375Z,0.03
2022-12-19T15:07:07.028Z,0.07
2022-12-19T15:14:03.963Z,-0.03
2022-12-19T15:17:57.552Z,0.02
2022-12-19T15:23:00.897Z,-0.06
2022-12-19T15:28:04.335Z,0.02
2022-12-19T15:33:15.201Z,0.00
2022-12-19T15:38:18.856Z,0.00
2022-12-19T15:44:02.050Z,0.23
2022-12-19T15:48:51.842Z,0.34
2022-12-19T15:54:09.112Z,0.25
2022-12-19T15:59:38.764Z,0.32
2022-12-19T16:04:44.170Z,0.29
2022-12-19T16:09:48.215Z,0.15
2022-12-19T16:15:00.110Z,0.40
2022-12-19T16:20:05.327Z,0.47
2022-12-19T16:25:09.549Z,0.39
2022-12-19T16:30:20.378Z,0.43
2022-12-19T16:36:01.717Z,0.48
2022-12-19T16:40:51.828Z,0.50
2022-12-19T16:46:00.608Z,0.55
2022-12-19T16:51:06.543Z,0.28
2022-12-19T16:56:21.618Z,0.51
2022-12-19T17:01:24.979Z,0.63
2022-12-19T17:06:30.203Z,0.47
2022-12-19T17:11:34.183Z,0.52
2022-12-19T17:16:38.710Z,0.59
2022-12-19T17:21:43.869Z,0.48
2022-12-19T17:26:48.115Z,0.40
2022-12-19T17:31:51.824Z,0.45
2022-12-19T17:36:56.989Z,0.55
2022-12-19T17:42:04.200Z,0.63
2022-12-19T17:47:07.880Z,0.63
2022-12-19T17:52:16.336Z,0.65
2022-12-19T17:57:20.225Z,0.56
2022-12-19T18:02:26.011Z,0.69
2022-12-19T18:07:31.182Z,0.57
2022-12-19T18:12:34.629Z,0.49
2022-12-19T18:17:40.366Z,0.55
2022-12-19T18:22:45.094Z,0.69
2022-12-19T18:27:48.641Z,0.72
2022-12-19T18:32:57.099Z,0.56
2022-12-19T18:38:03.699Z,0.56
2022-12-19T18:43:07.096Z,0.56
2022-12-19T18:48:17.503Z,0.72
2022-12-19T18:53:23.360Z,0.63
2022-12-19T18:58:28.390Z,0.63
2022-12-19T19:03:34.269Z,0.70
2022-12-19T19:08:39.393Z,0.74
2022-12-19T19:13:42.885Z,0.69
2022-12-19T19:18:48.081Z,0.63
2022-12-19T19:23:57.289Z,0.63
2022-12-19T19:29:00.924Z,0.47
2022-12-19T19:34:11.183Z,0.59
2022-12-19T19:39:16.648Z,0.52
2022-12-19T19:44:20.167Z,0.46
2022-12-19T19:49:24.545Z,0.20
2022-12-19T19:54:29.460Z,0.23
2022-12-19T19:59:32.694Z,0.20
2022-12-19T20:04:36.366Z,0.03
2022-12-19T20:09:41.346Z,0.33
2022-12-19T20:14:45.242Z,0.29
2022-12-19T20:19:48.891Z,0.15
2022-12-19T20:24:54.230Z,0.05
2022-12-19T20:29:58.266Z,-0.08
2022-12-19T20:35:01.632Z,-0.14
2022-12-19T20:40:09.162Z,0.01
2022-12-19T20:45:12.662Z,-0.28
2022-12-19T20:50:16.515Z,-0.37
2022-12-19T20:55:21.301Z,-0.26
2022-12-19T21:00:24.749Z,-0.30
2022-12-19T21:05:28.157Z,-0.40
2022-12-19T21:10:33.452Z,-0.28
2022-12-19T21:15:36.965Z,-0.30
2022-12-19T21:20:40.803Z,-0.43
2022-12-19T21:25:45.934Z,-0.41
2022-12-19T21:30:57.090Z,-0.43
2022-12-19T21:36:07.309Z,-0.48
2022-12-19T21:41:18.988Z,-0.54
2022-12-19T21:46:24.419Z,-0.49
2022-12-19T21:51:32.641Z,-0.28
2022-12-19T21:56:40.277Z,-0.32
2022-12-19T22:01:45.007Z,-0.24
2022-12-19T22:06:48.485Z,-0.20
2022-12-19T22:11:53.517Z,-0.36
2022-12-19T22:16:57.186Z,-0.38
2022-12-19T22:22:00.818Z,-0.30
2022-12-19T22:27:05.973Z,-0.45
2022-12-19T22:32:09.704Z,-0.49
2022-12-19T22:37:13.370Z,-0.46
2022-12-19T22:42:18.762Z,-0.35
2022-12-19T22:47:22.324Z,-0.30
2022-12-19T22:52:25.629Z,-0.50
2022-12-19T22:57:30.673Z,-0.71
2022-12-19T23:02:34.114Z,-0.65
2022-12-19T23:07:37.975Z,-0.84
2022-12-19T23:12:42.773Z,-0.82
2022-12-19T23:17:46.471Z,-0.99
2022-12-19T23:22:49.866Z,-0.99
2022-12-19T23:27:55.272Z,-1.01
2022-12-19T23:32:58.604Z,-1.26
2022-12-19T23:38:02.224Z,-1.28
2022-12-19T23:43:07.080Z,-1.19
2022-12-19T23:48:10.870Z,-1.15
2022-12-19T23:53:14.448Z,-1.39
2022-12-19T23:58:24.397Z,-1.35
